createdAt,value
2018-09-27T00:01:56.492Z,102672.12
2018-09-27T00:06:50.934Z,102670.95
2018-09-27T00:11:45.393Z,102669.79
2018-09-27T00:16:39.848Z,102660.20
2018-09-27T00:21:34.305Z,102666.89
2018-09-27T00:26:28.788Z,102653.78
2018-09-27T00:31:23.224Z,102658.27
2018-09-27T00:36:17.723Z,102657.42
2018-09-27T00:41:12.188Z,102657.54
2018-09-27T00:46:06.790Z,102657.25
2018-09-27T00:51:01.239Z,102652.92
2018-09-27T00:55:55.656Z,102643.41
2018-09-27T01:00:50.110Z,102635.95
2018-09-27T01:05:44.629Z,102642.20
2018-09-27T01:10:39.092Z,102622.92
2018-09-27T01:15:33.611Z,102630.04
2018-09-27T01:20:28.144Z,102627.06
2018-09-27T01:25:22.578Z,102622.73
2018-09-27T01:30:17.160Z,102622.41
2018-09-27T01:35:11.702Z,102612.78
2018-09-27T01:40:06.330Z,102608.96
2018-09-27T01:45:00.770Z,102614.28
2018-09-27T01:49:55.207Z,102615.71
2018-09-27T01:54:49.679Z,102606.13
2018-09-27T01:59:44.110Z,102607.55
2018-09-27T02:04:38.756Z,102606.73
2018-09-27T02:09:33.198Z,102606.81
2018-09-27T02:14:27.738Z,102605.93
2018-09-27T02:19:22.213Z,102598.52
2018-09-27T02:24:16.671Z,102599.46
2018-09-27T02:29:11.290Z,102603.42
2018-09-27T02:34:05.815Z,102597.77
2018-09-27T02:39:00.237Z,102601.77
2018-09-27T02:43:54.905Z,102600.95
2018-09-27T02:48:49.356Z,102589.55
2018-09-27T02:53:43.792Z,102595.80
2018-09-27T02:58:38.280Z,102586.19
2018-09-27T03:03:32.729Z,102577.42
2018-09-27T03:08:27.298Z,102577.48
2018-09-27T03:13:21.904Z,102580.63
2018-09-27T03:18:16.435Z,102574.50
2018-09-27T03:23:10.894Z,102570.58
2018-09-27T03:28:05.678Z,102556.09
2018-09-27T03:33:00.092Z,102552.56
2018-09-27T03:37:54.572Z,102553.92
2018-09-27T03:42:49.103Z,102543.87
2018-09-27T03:47:43.531Z,102549.18
2018-09-27T03:52:38.007Z,102536.52
2018-09-27T03:57:32.625Z,102531.23
2018-09-27T04:02:27.037Z,102540.04
2018-09-27T04:07:21.505Z,102535.27
2018-09-27T04:12:15.976Z,102529.58
2018-09-27T04:17:10.415Z,102526.06
2018-09-27T04:22:04.876Z,102524.80
2018-09-27T04:26:59.328Z,102522.70
2018-09-27T04:31:53.932Z,102520.63
2018-09-27T04:36:48.369Z,102527.80
2018-09-27T04:41:42.988Z,102527.45
2018-09-27T04:46:37.471Z,102519.67
2018-09-27T04:51:32.067Z,102528.92
2018-09-27T04:56:26.600Z,102528.58
2018-09-27T05:01:21.039Z,102520.34
2018-09-27T05:06:15.517Z,102520.00
2018-09-27T05:11:10.148Z,102522.28
2018-09-27T05:16:04.772Z,102517.08
2018-09-27T05:20:59.326Z,102509.22
2018-09-27T05:25:53.749Z,102512.77
2018-09-27T05:30:48.199Z,102508.40
2018-09-27T05:35:42.632Z,102506.61
2018-09-27T05:40:37.260Z,102509.60
2018-09-27T05:45:32.003Z,102508.63
2018-09-27T05:50:26.821Z,102501.09
2018-09-27T05:55:21.323Z,102503.61
2018-09-27T06:00:16.269Z,102500.45
2018-09-27T06:05:10.823Z,102500.28
2018-09-27T06:10:05.647Z,102494.84
2018-09-27T06:15:00.149Z,102493.33
2018-09-27T06:19:54.760Z,102486.53
2018-09-27T06:24:49.332Z,102487.11
2018-09-27T06:29:43.836Z,102487.27
2018-09-27T06:34:38.314Z,102478.95
2018-09-27T06:39:32.791Z,102482.50
2018-09-27T06:44:27.490Z,102491.61
2018-09-27T06:49:22.259Z,102492.06
2018-09-27T06:54:16.972Z,102481.37
2018-09-27T06:59:11.794Z,102476.28
2018-09-27T07:04:06.310Z,102474.89
2018-09-27T07:09:00.844Z,102473.06
2018-09-27T07:13:55.313Z,102469.20
2018-09-27T07:18:49.898Z,102459.77
2018-09-27T07:23:44.570Z,102453.81
2018-09-27T07:28:39.136Z,102456.08
2018-09-27T07:33:33.638Z,102453.83
2018-09-27T07:38:28.210Z,102453.77
2018-09-27T07:43:22.984Z,102457.95
2018-09-27T07:48:17.692Z,102443.59
2018-09-27T07:53:12.606Z,102448.50
2018-09-27T07:58:07.683Z,102453.99
2018-09-27T08:03:02.686Z,102444.86
2018-09-27T08:07:57.660Z,102443.78
2018-09-27T08:12:52.387Z,102444.50
2018-09-27T08:17:47.202Z,102435.10
2018-09-27T08:22:42.138Z,102424.67
2018-09-27T08:27:36.926Z,102423.88
2018-09-27T08:32:32.361Z,102418.59
2018-09-27T08:37:27.427Z,102403.42
2018-09-27T08:42:22.432Z,102403.16
2018-09-27T08:47:17.226Z,102399.59
2018-09-27T08:52:12.491Z,102393.02
2018-09-27T08:57:07.734Z,102383.10
2018-09-27T09:02:02.754Z,102374.55
2018-09-27T09:06:57.520Z,102387.19
2018-09-27T09:11:52.316Z,102379.44
2018-09-27T09:16:47.077Z,102365.84
2018-09-27T09:21:41.988Z,102362.13
2018-09-27T09:26:37.175Z,102363.22
2018-09-27T09:31:31.994Z,102348.55
2018-09-27T09:36:26.775Z,102344.34
2018-09-27T09:41:21.548Z,102335.79
2018-09-27T09:46:16.393Z,102326.66
2018-09-27T09:51:11.311Z,102312.13
2018-09-27T09:56:06.162Z,102304.48
2018-09-27T10:01:00.980Z,102304.64
2018-09-27T10:05:55.854Z,102298.66
2018-09-27T10:10:50.522Z,102292.97
2018-09-27T10:15:45.013Z,102290.87
2018-09-27T10:20:39.511Z,102292.94
2018-09-27T10:25:34.423Z,102282.31
2018-09-27T10:30:28.875Z,102276.97
2018-09-27T10:35:23.449Z,102267.84
2018-09-27T10:40:18.113Z,102254.50
2018-09-27T10:45:12.667Z,102250.05
2018-09-27T10:50:07.511Z,102240.58
2018-09-27T10:55:02.006Z,102238.47
2018-09-27T10:59:56.911Z,102240.97
2018-09-27T11:04:51.398Z,102224.67
2018-09-27T11:09:46.515Z,102216.45
2018-09-27T11:14:41.020Z,102210.88
2018-09-27T11:19:35.534Z,102205.63
2018-09-27T11:24:30.268Z,102181.77
2018-09-27T11:29:30.172Z,102173.89
2018-09-27T11:34:24.893Z,102164.25
2018-09-27T11:39:19.740Z,102154.31
2018-09-27T11:44:14.371Z,102142.50
2018-09-27T11:49:09.292Z,102136.47
2018-09-27T11:54:03.993Z,102127.98
2018-09-27T11:58:58.500Z,102122.55
2018-09-27T12:03:53.963Z,102100.48
2018-09-27T12:08:48.434Z,102107.25
2018-09-27T12:13:45.088Z,102092.52
2018-09-27T12:18:39.660Z,102070.03
2018-09-27T12:23:34.283Z,102055.72
2018-09-27T12:28:28.799Z,102047.16
2018-09-27T12:33:23.661Z,102037.49
2018-09-27T12:38:18.425Z,102030.27
2018-09-27T12:43:12.956Z,102020.50
2018-09-27T12:48:07.683Z,102012.63
2018-09-27T12:53:02.674Z,101991.81
2018-09-27T12:57:57.360Z,101978.78
2018-09-27T13:02:52.136Z,101968.19
2018-09-27T13:07:46.757Z,101958.22
2018-09-27T13:12:41.306Z,101948.45
2018-09-27T13:17:36.007Z,101937.77
2018-09-27T13:22:30.932Z,101932.79
2018-09-27T13:27:26.232Z,101914.09
2018-09-27T13:32:20.966Z,101907.16
2018-09-27T13:37:15.798Z,101899.59
2018-09-27T13:42:10.481Z,101893.75
2018-09-27T13:47:05.006Z,101882.06
2018-09-27T13:51:59.911Z,101871.06
2018-09-27T13:56:54.599Z,101866.83
2018-09-27T14:01:49.687Z,101859.67
2018-09-27T14:06:44.423Z,101854.16
2018-09-27T14:11:39.560Z,101852.81
2018-09-27T14:16:34.308Z,101841.35
2018-09-27T14:21:28.772Z,101823.80
2018-09-27T14:26:23.283Z,101819.90
2018-09-27T14:31:17.744Z,101816.09
2018-09-27T14:36:12.913Z,101808.66
2018-09-27T14:41:07.500Z,101806.09
2018-09-27T14:46:02.147Z,101810.19
2018-09-27T14:50:56.602Z,101800.82
2018-09-27T14:55:51.181Z,101795.84
2018-09-27T15:00:45.716Z,101789.48
2018-09-27T15:05:40.369Z,101776.55
2018-09-27T15:10:35.084Z,101773.00
2018-09-27T15:15:29.831Z,101776.91
2018-09-27T15:20:24.412Z,101772.00
2018-09-27T15:25:19.152Z,101761.07
2018-09-27T15:30:13.912Z,101758.09
2018-09-27T15:35:08.485Z,101754.13
2018-09-27T15:40:03.098Z,101754.73
2018-09-27T15:44:58.205Z,101752.98
2018-09-27T15:49:52.662Z,101749.98
2018-09-27T15:54:47.163Z,101740.98
2018-09-27T15:59:41.626Z,101739.27
2018-09-27T16:04:36.220Z,101726.88
2018-09-27T16:09:30.673Z,101722.93
2018-09-27T16:14:25.992Z,101727.39
2018-09-27T16:19:20.485Z,101720.67
2018-09-27T16:24:15.132Z,101720.12
2018-09-27T16:29:09.921Z,101713.67
2018-09-27T16:34:04.380Z,101712.95
2018-09-27T16:38:59.113Z,101712.86
2018-09-27T16:43:53.593Z,101708.66
2018-09-27T16:48:48.382Z,101705.63
2018-09-27T16:53:43.422Z,101709.27
2018-09-27T16:58:38.380Z,101707.80
2018-09-27T17:03:32.848Z,101705.17
2018-09-27T17:08:27.537Z,101704.36
2018-09-27T17:13:21.997Z,101695.75
2018-09-27T17:18:16.582Z,101696.52
2018-09-27T17:23:11.306Z,101692.37
2018-09-27T17:28:06.101Z,101691.21
2018-09-27T17:33:00.693Z,101692.31
2018-09-27T17:37:55.632Z,101685.57
2018-09-27T17:42:50.087Z,101674.73
2018-09-27T17:47:44.666Z,101683.09
2018-09-27T17:52:39.364Z,101685.59
2018-09-27T17:57:33.992Z,101690.63
2018-09-27T18:02:28.455Z,101695.70
2018-09-27T18:07:23.257Z,101702.45
2018-09-27T18:12:18.650Z,101695.84
2018-09-27T18:17:14.658Z,101698.00
2018-09-27T18:22:09.450Z,101700.22
2018-09-27T18:27:03.908Z,101699.77
2018-09-27T18:31:58.374Z,101694.45
2018-09-27T18:36:53.218Z,101700.59
2018-09-27T18:41:47.671Z,101686.70
2018-09-27T18:46:42.168Z,101693.09
2018-09-27T18:51:37.201Z,101695.08
2018-09-27T18:56:31.764Z,101691.65
2018-09-27T19:01:26.542Z,101685.19
2018-09-27T19:06:21.048Z,101689.89
2018-09-27T19:11:15.667Z,101695.88
2018-09-27T19:16:12.320Z,101696.64
2018-09-27T19:21:09.513Z,101691.55
2018-09-27T19:26:05.427Z,101689.62
2018-09-27T19:31:03.795Z,101694.17
2018-09-27T19:35:58.651Z,101687.75
2018-09-27T19:40:53.422Z,101677.81
2018-09-27T19:45:48.219Z,101685.48
2018-09-27T19:50:42.825Z,101686.02
2018-09-27T19:55:37.582Z,101685.27
2018-09-27T20:00:32.180Z,101699.57
2018-09-27T20:05:26.746Z,101694.95
2018-09-27T20:10:21.267Z,101691.52
2018-09-27T20:15:16.101Z,101694.87
2018-09-27T20:20:10.817Z,101696.80
2018-09-27T20:25:05.995Z,101703.38
2018-09-27T20:30:00.497Z,101709.57
2018-09-27T20:34:55.863Z,101709.06
2018-09-27T20:39:50.468Z,101711.10
2018-09-27T20:44:45.442Z,101709.61
2018-09-27T20:49:40.570Z,101708.16
2018-09-27T20:54:35.069Z,101707.06
2018-09-27T20:59:29.622Z,101704.57
2018-09-27T21:04:26.499Z,101698.17
2018-09-27T21:09:20.958Z,101704.65
2018-09-27T21:14:15.444Z,101708.38
2018-09-27T21:19:10.312Z,101701.65
2018-09-27T21:24:04.813Z,101706.91
2018-09-27T21:28:59.825Z,101714.16
2018-09-27T21:33:55.671Z,101708.71
2018-09-27T21:38:50.212Z,101709.94
2018-09-27T21:43:44.628Z,101706.73
2018-09-27T21:48:41.374Z,101711.52
2018-09-27T21:53:35.850Z,101711.41
2018-09-27T21:58:30.514Z,101706.48
2018-09-27T22:03:25.307Z,101699.20
2018-09-27T22:08:20.007Z,101699.06
2018-09-27T22:13:14.758Z,101699.28
2018-09-27T22:18:09.242Z,101700.42
2018-09-27T22:23:04.647Z,101702.44
2018-09-27T22:28:01.396Z,101705.81
2018-09-27T22:32:57.970Z,101701.11
2018-09-27T22:37:52.539Z,101714.98
2018-09-27T22:42:47.119Z,101718.80
2018-09-27T22:47:41.562Z,101711.45
2018-09-27T22:52:36.202Z,101709.32
2018-09-27T22:57:30.794Z,101707.20
2018-09-27T23:02:25.992Z,101706.96
2018-09-27T23:07:20.512Z,101712.41
2018-09-27T23:12:15.029Z,101706.04
2018-09-27T23:17:09.832Z,101703.05
2018-09-27T23:22:04.372Z,101696.11
2018-09-27T23:26:59.467Z,101697.05
2018-09-27T23:31:54.335Z,101688.75
2018-09-27T23:36:49.232Z,101692.56
2018-09-27T23:41:44.364Z,101698.08
2018-09-27T23:46:39.210Z,101697.56
2018-09-27T23:51:34.021Z,101692.20
2018-09-27T23:56:28.482Z,101692.91
